Time;durP1;ratioP1;P1;durP2;ratioP2;P2;SDS_P1;SDS_P2;PMS_P1;PMS_P2;Temp;Humidity;BMP_temperature;BMP_pressure;BME280_temperature;BME280_humidity;BME280_pressure;Samples;Min_cycle;Max_cycle;Signal;HPM_P1;HPM_P2
2022/03/12 00:00:54;;;;;;;5.40;1.10;;;;;;;11.16;100.00;98332.47;7398858;19;20015;-82
2022/03/12 00:03:21;;;;;;;0.98;0.52;;;;;;;11.17;100.00;98333.97;7393974;19;20025;-82
2022/03/12 00:05:54;;;;;;;1.85;0.60;;;;;;;11.16;100.00;98332.47;7392006;19;20023;-83
2022/03/12 00:08:28;;;;;;;11.77;0.90;;;;;;;11.18;100.00;98319.53;7395412;19;20019;-83
2022/03/12 00:10:53;;;;;;;1.38;0.52;;;;;;;11.19;100.00;98331.44;7396322;19;20039;-82
2022/03/12 00:13:19;;;;;;;2.47;0.63;;;;;;;11.18;100.00;98324.34;7395365;19;20006;-82
2022/03/12 00:15:47;;;;;;;1.58;1.13;;;;;;;11.18;100.00;98319.53;7395197;19;20022;-83
2022/03/12 00:18:19;;;;;;;1.27;0.30;;;;;;;11.22;100.00;98331.16;7396894;19;20015;-83
2022/03/12 00:20:48;;;;;;;2.40;1.00;;;;;;;11.19;100.00;98332.19;7396459;19;20030;-83
2022/03/12 00:23:18;;;;;;;2.67;0.82;;;;;;;11.21;100.00;98324.06;7394800;19;20078;-83
2022/03/12 00:25:44;;;;;;;5.32;1.23;;;;;;;11.19;100.00;98328.66;7392995;19;20022;-83
2022/03/12 00:28:12;;;;;;;0.93;0.75;;;;;;;11.19;100.00;98329.41;7392598;19;20043;-82
2022/03/12 00:30:39;;;;;;;0.70;0.70;;;;;;;11.18;100.00;98327.13;7390344;19;20043;-83
2022/03/12 00:33:04;;;;;;;1.65;0.80;;;;;;;11.20;100.00;98341.28;7391338;19;20477;-82
2022/03/12 00:35:31;;;;;;;1.33;1.00;;;;;;;11.17;100.00;98328.41;7392744;19;20018;-84
2022/03/12 00:37:57;;;;;;;3.13;0.47;;;;;;;11.19;100.00;98334.22;7391605;19;20088;-83
2022/03/12 00:40:23;;;;;;;2.85;1.20;;;;;;;11.19;100.00;98331.44;7393563;19;20014;-83
2022/03/12 00:42:49;;;;;;;2.70;1.05;;;;;;;11.17;100.00;98333.97;7394670;19;20048;-83
2022/03/12 00:45:15;;;;;;;2.58;0.80;;;;;;;11.16;100.00;98326.88;7392458;19;20026;-83
2022/03/12 00:47:41;;;;;;;3.83;1.63;;;;;;;11.19;100.00;98328.66;7394624;19;20021;-83
2022/03/12 00:50:07;;;;;;;1.23;0.80;;;;;;;11.21;100.00;98320.53;7394203;19;20018;-82
2022/03/12 00:52:32;;;;;;;3.40;0.82;;;;;;;11.23;100.00;98326.34;7394102;19;20018;-83
2022/03/12 00:54:58;;;;;;;0.77;0.77;;;;;;;11.29;100.00;98324.25;7391278;19;20477;-83
2022/03/12 00:57:24;;;;;;;0.43;0.43;;;;;;;11.32;100.00;98328.81;7390478;19;20025;-83
2022/03/12 00:59:49;;;;;;;3.83;1.55;;;;;;;11.36;100.00;98323.72;7393935;19;20007;-84
2022/03/12 01:02:17;;;;;;;2.35;1.75;;;;;;;11.36;100.00;98330.06;7391594;19;20025;-83
2022/03/12 01:04:44;;;;;;;1.48;0.90;;;;;;;11.30;100.00;98323.00;7393400;19;20487;-84
2022/03/12 01:07:13;;;;;;;1.08;0.90;;;;;;;11.33;100.00;98324.75;7398148;19;20014;-88
2022/03/12 01:09:39;;;;;;;1.98;0.85;;;;;;;11.31;100.00;98327.28;7398563;19;20363;-89
2022/03/12 01:12:07;;;;;;;0.95;0.88;;;;;;;11.35;100.00;98327.75;7401613;19;20014;-90
2022/03/12 01:14:32;;;;;;;2.40;0.80;;;;;;;11.38;100.00;98332.31;7395451;19;20018;-89
2022/03/12 01:16:59;;;;;;;1.15;1.10;;;;;;;11.37;100.00;98317.63;7394749;19;20021;-89
2022/03/12 01:19:25;;;;;;;8.15;1.10;;;;;;;11.36;100.00;98326.50;7399591;19;20023;-89
2022/03/12 01:21:51;;;;;;;1.20;1.13;;;;;;;11.33;100.00;98324.75;7402702;19;20010;-90
2022/03/12 01:24:24;;;;;;;0.85;0.80;;;;;;;11.34;100.00;98321.47;7397620;19;20029;31
2022/03/12 01:26:50;;;;;;;2.40;1.33;;;;;;;11.34;100.00;98329.06;7394262;19;20416;-56
2022/03/12 01:29:16;;;;;;;14.93;1.05;;;;;;;11.37;100.00;98331.56;7392055;19;20035;-56
2022/03/12 01:31:41;;;;;;;1.25;1.15;;;;;;;11.38;100.00;98326.75;7395472;19;20014;-56
2022/03/12 01:34:07;;;;;;;4.20;0.65;;;;;;;11.34;100.00;98329.06;7392736;19;20011;-56
2022/03/12 01:36:32;;;;;;;1.00;0.80;;;;;;;11.34;100.00;98331.84;7395532;19;20014;-56
2022/03/12 01:38:59;;;;;;;2.60;1.20;;;;;;;11.34;100.00;98334.63;7393754;19;20034;-56
2022/03/12 01:41:27;;;;;;;0.68;0.68;;;;;;;11.29;100.00;98324.25;7396179;19;20018;-56
2022/03/12 01:43:57;;;;;;;1.75;0.80;;;;;;;11.32;100.00;98323.25;7392896;19;20015;-56
2022/03/12 01:46:29;;;;;;;2.08;0.90;;;;;;;11.30;100.00;98323.00;7394473;19;20107;-56
2022/03/12 01:48:59;;;;;;;1.48;0.80;;;;;;;11.28;100.00;98322.75;7394626;19;20014;-56
2022/03/12 01:51:28;;;;;;;0.35;0.32;;;;;;;11.28;100.00;98328.34;7396574;19;20014;-56
2022/03/12 01:53:54;;;;;;;3.72;1.15;;;;;;;11.26;100.00;98319.75;7390977;19;20019;-55
2022/03/12 01:56:25;;;;;;;1.50;0.98;;;;;;;11.31;100.00;98324.50;7396773;19;20471;-55
2022/03/12 01:58:51;;;;;;;3.20;0.98;;;;;;;11.31;100.00;98324.50;7397687;19;20042;-56
2022/03/12 02:01:18;;;;;;;0.80;0.40;;;;;;;11.30;100.00;98325.78;7398369;19;20082;-56
2022/03/12 02:03:44;;;;;;;1.08;1.05;;;;;;;11.29;100.00;98329.84;7397323;19;20070;-56
2022/03/12 02:06:15;;;;;;;1.08;1.08;;;;;;;11.33;100.00;98330.31;7397329;19;20015;-56
2022/03/12 02:08:41;;;;;;;11.53;1.03;;;;;;;11.33;100.00;98324.75;7395397;19;20025;-56
2022/03/12 02:11:07;;;;;;;1.52;0.40;;;;;;;11.29;100.00;98327.06;7396697;19;20329;-56
2022/03/12 02:13:35;;;;;;;1.50;1.25;;;;;;;11.28;100.00;98329.06;7396825;19;20002;-56
2022/03/12 02:16:07;;;;;;;0.73;0.73;;;;;;;11.27;100.00;98327.56;7398310;19;20018;-55
2022/03/12 02:18:32;;;;;;;9.80;0.63;;;;;;;11.26;100.00;98325.31;7398657;19;20039;-55
2022/03/12 02:20:59;;;;;;;6.28;0.88;;;;;;;11.27;100.00;98322.00;7398340;19;20075;-56
2022/03/12 02:23:24;;;;;;;0.70;0.65;;;;;;;11.28;100.00;98322.75;7397774;19;20018;-56
2022/03/12 02:25:50;;;;;;;0.73;0.73;;;;;;;11.32;100.00;98323.25;7390072;19;20456;-59
2022/03/12 02:28:18;;;;;;;1.25;0.68;;;;;;;11.30;100.00;98325.78;7389468;19;20015;-59
2022/03/12 02:30:51;;;;;;;1.05;0.25;;;;;;;11.36;100.00;98320.94;7394876;19;20396;-60
2022/03/12 02:33:27;;;;;;;0.30;0.30;;;;;;;11.31;100.00;98327.28;7392956;19;20006;-60
2022/03/12 02:35:53;;;;;;;1.27;0.65;;;;;;;11.27;100.00;98312.88;7394202;19;20039;-59
2022/03/12 02:38:20;;;;;;;0.50;0.50;;;;;;;11.28;100.00;98322.75;7393552;19;20037;-60
2022/03/12 02:40:48;;;;;;;2.10;0.38;;;;;;;11.28;100.00;98325.56;7394350;19;20098;-60
2022/03/12 02:43:13;;;;;;;0.75;0.75;;;;;;;11.27;100.00;98321.25;7392659;19;20367;-59
2022/03/12 02:45:40;;;;;;;1.05;0.63;;;;;;;11.28;100.00;98320.72;7391458;19;20022;-59
2022/03/12 02:48:10;;;;;;;0.77;0.32;;;;;;;11.29;100.00;98316.66;7394410;19;20036;-60
2022/03/12 02:50:37;;;;;;;6.25;0.43;;;;;;;11.28;100.00;98308.84;7392405;19;20077;-60
2022/03/12 02:53:03;;;;;;;8.27;1.38;;;;;;;11.29;100.00;98307.53;7396101;19;20025;-60
2022/03/12 02:55:30;;;;;;;0.88;0.50;;;;;;;11.27;100.00;98313.66;7399647;19;20052;-60
2022/03/12 02:57:56;;;;;;;1.02;0.52;;;;;;;11.25;100.00;98307.84;7402613;19;20463;-60
2022/03/12 03:00:22;;;;;;;4.07;0.90;;;;;;;11.27;100.00;98312.88;7402101;19;20021;-60
2022/03/12 03:02:56;;;;;;;0.90;0.30;;;;;;;11.18;100.00;98304.84;7398562;19;20034;-60
2022/03/12 03:05:33;;;;;;;0.47;0.47;;;;;;;11.13;100.00;98302.88;7400775;19;20018;-60
2022/03/12 03:08:03;;;;;;;4.68;0.40;;;;;;;11.09;100.00;98310.72;7399714;19;20518;-60
2022/03/12 03:10:30;;;;;;;2.72;0.52;;;;;;;11.11;100.00;98319.34;7401547;19;20467;-60
2022/03/12 03:12:58;;;;;;;0.10;0.10;;;;;;;11.09;100.00;98319.06;7400065;19;20026;-59
2022/03/12 03:15:25;;;;;;;5.35;0.45;;;;;;;11.10;100.00;98317.81;7399864;19;20093;-60
2022/03/12 03:17:51;;;;;;;0.85;0.22;;;;;;;11.05;100.00;98322.16;7398838;19;20556;-60
2022/03/12 03:20:17;;;;;;;0.40;0.40;;;;;;;11.04;100.00;98312.28;7399370;19;20021;-60
2022/03/12 03:22:43;;;;;;;0.10;0.10;;;;;;;11.07;100.00;98313.25;7397879;19;20074;-60
2022/03/12 03:25:09;;;;;;;0.77;0.60;;;;;;;11.03;100.00;98315.56;7399187;19;20010;-60
2022/03/12 03:27:35;;;;;;;2.25;0.60;;;;;;;11.00;100.00;98319.41;7402058;19;20038;-60
2022/03/12 03:30:00;;;;;;;1.85;0.98;;;;;;;11.02;100.00;98325.22;7400467;19;20011;-60
2022/03/12 03:32:26;;;;;;;0.95;0.85;;;;;;;11.06;100.00;98318.09;7399061;19;20022;-60
2022/03/12 03:34:51;;;;;;;0.20;0.15;;;;;;;11.09;100.00;98321.84;7397707;19;20014;-60
2022/03/12 03:37:17;;;;;;;0.30;0.30;;;;;;;11.06;100.00;98322.91;7399467;19;20046;-60
2022/03/12 03:39:42;;;;;;;0.10;0.10;;;;;;;11.04;100.00;98319.88;7396228;19;20014;-60
2022/03/12 03:42:08;;;;;;;0.50;0.20;;;;;;;10.97;100.00;98326.00;7402711;19;20018;-60
2022/03/12 03:44:35;;;;;;;1.42;0.43;;;;;;;10.92;100.00;98312.84;7399442;19;20070;-61
2022/03/12 03:47:01;;;;;;;0.47;0.47;;;;;;;10.96;100.00;98319.66;7399538;19;20055;-60
2022/03/12 03:49:26;;;;;;;0.57;0.57;;;;;;;11.01;100.00;98312.53;7399002;19;20373;-60
2022/03/12 03:51:52;;;;;;;0.25;0.25;;;;;;;11.03;100.00;98329.50;7400566;19;20494;-60
2022/03/12 03:54:18;;;;;;;0.40;0.40;;;;;;;10.99;100.00;98323.44;7395423;19;20047;-60
2022/03/12 03:56:44;;;;;;;5.70;0.45;;;;;;;10.92;100.00;98329.56;7399224;19;20014;-60
2022/03/12 03:59:09;;;;;;;1.20;0.38;;;;;;;10.87;100.00;98333.88;7397522;19;20014;-60
2022/03/12 04:01:41;;;;;;;0.25;0.25;;;;;;;10.84;100.00;98334.16;7401966;19;20014;-60
2022/03/12 04:04:12;;;;;;;0.10;0.10;;;;;;;10.81;100.00;98343.53;7398746;19;20018;-60
2022/03/12 04:06:39;;;;;;;0.45;0.45;;;;;;;10.80;100.00;98342.03;7399535;19;20034;-60
2022/03/12 04:09:05;;;;;;;0.57;0.30;;;;;;;10.73;100.00;98343.34;7398971;19;20014;-60
2022/03/12 04:11:33;;;;;;;0.77;0.40;;;;;;;10.71;100.00;98342.31;7401581;19;20026;-60
2022/03/12 04:13:59;;;;;;;0.73;0.32;;;;;;;10.70;100.00;98346.41;7397142;19;20022;-60
2022/03/12 04:16:24;;;;;;;0.47;0.15;;;;;;;10.67;100.00;98339.81;7400970;19;20014;-61
2022/03/12 04:18:50;;;;;;;1.05;0.80;;;;;;;10.62;100.00;98351.72;7398448;19;20014;-61
2022/03/12 04:21:18;;;;;;;0.13;0.13;;;;;;;10.61;100.00;98345.41;7401491;19;20408;-61
2022/03/12 04:23:45;;;;;;;2.13;0.70;;;;;;;10.62;100.00;98357.31;7398337;19;20019;-60
2022/03/12 04:26:11;;;;;;;0.30;0.20;;;;;;;10.57;100.00;98358.84;7397430;19;20034;-60
2022/03/12 04:28:37;;;;;;;2.58;0.75;;;;;;;10.59;100.00;98359.06;7395036;19;20018;-60
2022/03/12 04:31:05;;;;;;;0.20;0.20;;;;;;;10.61;100.00;98361.38;7399441;19;20018;-61
2022/03/12 04:33:32;;;;;;;5.47;0.73;;;;;;;10.60;100.00;98360.59;7396690;19;20018;-61
2022/03/12 04:35:59;;;;;;;0.38;0.38;;;;;;;10.59;100.00;98358.31;7396679;19;20082;-61
2022/03/12 04:38:25;;;;;;;0.43;0.35;;;;;;;10.58;100.00;98365.94;7396482;19;20014;-61
2022/03/12 04:40:55;;;;;;;0.30;0.30;;;;;;;10.56;100.00;98360.13;7399455;19;20014;-61
2022/03/12 04:43:21;;;;;;;0.25;0.20;;;;;;;10.50;100.00;98364.91;7398176;19;20033;-61
2022/03/12 04:45:47;;;;;;;0.32;0.32;;;;;;;10.48;100.00;98364.69;7398618;19;20071;-61
2022/03/12 04:48:21;;;;;;;0.30;0.10;;;;;;;10.45;100.00;98370.53;7398769;19;20019;-61
2022/03/12 04:50:48;;;;;;;0.10;0.10;;;;;;;10.40;100.00;98385.19;7399713;19;20049;-53
2022/03/12 04:53:15;;;;;;;0.25;0.10;;;;;;;10.36;100.00;98379.91;7396519;19;20038;-53
2022/03/12 04:55:41;;;;;;;6.18;0.75;;;;;;;10.35;100.00;98389.50;7397323;19;20022;-52
2022/03/12 04:58:09;;;;;;;0.22;0.10;;;;;;;10.35;100.00;98383.94;7398159;19;20010;-52
2022/03/12 05:00:38;;;;;;;0.20;0.10;;;;;;;10.36;100.00;98396.59;7399153;19;20454;-52
2022/03/12 05:03:03;;;;;;;0.10;0.10;;;;;;;10.32;100.00;98390.53;7397232;19;20018;-52
2022/03/12 05:05:29;;;;;;;0.32;0.10;;;;;;;10.35;100.00;98395.06;7397218;19;20042;-51
2022/03/12 05:07:58;;;;;;;0.60;0.20;;;;;;;10.35;100.00;98395.06;7396537;19;20015;-51
2022/03/12 05:10:27;;;;;;;0.40;0.22;;;;;;;10.36;100.00;98402.16;7394845;19;20018;-51
2022/03/12 05:12:58;;;;;;;0.20;0.15;;;;;;;10.37;100.00;98403.66;7396563;19;20391;-51
2022/03/12 05:15:24;;;;;;;6.63;0.30;;;;;;;10.28;100.00;98406.75;7394774;19;20097;-51
2022/03/12 05:17:51;;;;;;;0.10;0.10;;;;;;;10.34;100.00;98412.28;7397058;19;20014;-51
2022/03/12 05:20:24;;;;;;;0.47;0.47;;;;;;;10.33;100.00;98403.16;7396744;19;20018;-52
2022/03/12 05:22:50;;;;;;;2.20;0.90;;;;;;;10.32;100.00;98412.81;7396321;19;20385;-52
2022/03/12 05:25:18;;;;;;;0.22;0.22;;;;;;;10.28;100.00;98412.31;7395206;19;20014;-52
2022/03/12 05:27:52;;;;;;;0.13;0.13;;;;;;;10.23;100.00;98415.09;7396177;19;20031;-52
2022/03/12 05:30:18;;;;;;;2.20;1.20;;;;;;;10.26;100.00;98414.84;7395656;19;20035;-51
2022/03/12 05:32:47;;;;;;;0.30;0.30;;;;;;;10.25;100.00;98418.13;7395605;19;20018;-51
2022/03/12 05:35:13;;;;;;;0.63;0.63;;;;;;;10.25;100.00;98435.56;7396183;19;20527;-51
2022/03/12 05:37:40;;;;;;;0.20;0.20;;;;;;;10.29;100.00;98435.31;7393461;19;20014;-52
2022/03/12 05:40:09;;;;;;;0.22;0.22;;;;;;;10.27;100.00;98449.72;7395847;19;20062;-51
2022/03/12 05:42:35;;;;;;;0.50;0.40;;;;;;;10.27;100.00;98448.97;7394774;19;20022;-51
2022/03/12 05:45:09;;;;;;;0.20;0.20;;;;;;;10.29;100.00;98443.66;7395158;19;20039;-51
2022/03/12 05:47:40;;;;;;;8.35;0.60;;;;;;;10.27;100.00;98455.28;7396463;19;20110;-52
2022/03/12 05:50:10;;;;;;;0.15;0.15;;;;;;;10.27;100.00;98452.50;7394747;19;20015;-51
2022/03/12 05:52:37;;;;;;;2.67;0.38;;;;;;;10.24;100.00;98453.53;7395779;19;20011;-51
2022/03/12 05:55:05;;;;;;;0.40;0.10;;;;;;;10.23;100.00;98470.72;7393416;19;20034;-52
2022/03/12 05:57:32;;;;;;;0.28;0.28;;;;;;;10.20;100.00;98472.50;7394992;19;20565;-52
2022/03/12 06:00:01;;;;;;;0.30;0.13;;;;;;;10.23;100.00;98477.06;7393706;19;20015;-51
2022/03/12 06:02:27;;;;;;;0.20;0.20;;;;;;;10.23;100.00;98482.63;7394003;19;20022;-51
2022/03/12 06:04:53;;;;;;;2.25;0.35;;;;;;;10.26;100.00;98484.41;7392172;19;20019;-51
2022/03/12 06:07:27;;;;;;;0.90;0.30;;;;;;;10.23;100.00;98490.19;7389744;19;20022;-51
2022/03/12 06:09:56;;;;;;;0.85;0.63;;;;;;;10.23;100.00;98498.53;7395154;19;20014;-51
2022/03/12 06:12:26;;;;;;;0.32;0.10;;;;;;;10.21;100.00;98496.28;7392707;19;20038;-52
2022/03/12 06:14:56;;;;;;;0.10;0.10;;;;;;;10.09;100.00;98497.50;7397312;19;20006;-51
2022/03/12 06:17:25;;;;;;;0.35;0.35;;;;;;;10.12;100.00;98499.31;7394599;19;20018;-52
2022/03/12 06:19:52;;;;;;;0.70;0.55;;;;;;;10.15;100.00;98505.88;7396417;19;20019;-52
2022/03/12 06:22:17;;;;;;;0.40;0.40;;;;;;;10.14;100.00;98507.91;7394622;19;20456;-51
2022/03/12 06:24:44;;;;;;;0.20;0.20;;;;;;;10.12;100.00;98516.00;7392290;19;20011;-51
2022/03/12 06:27:09;;;;;;;0.40;0.40;;;;;;;10.01;100.00;98524.28;7393958;19;20332;-52
2022/03/12 06:29:35;;;;;;;0.10;0.10;;;;;;;10.00;100.00;98522.78;7394001;19;20077;-51
2022/03/12 06:32:01;;;;;;;0.15;0.15;;;;;;;9.99;100.00;98521.25;7398526;19;20017;-52
2022/03/12 06:34:28;;;;;;;0.20;0.20;;;;;;;10.01;100.00;98526.31;7392623;19;20015;-51
2022/03/12 06:36:54;;;;;;;0.15;0.15;;;;;;;10.01;100.00;98532.63;7393779;19;20030;-52
2022/03/12 06:39:19;;;;;;;0.65;0.30;;;;;;;10.03;100.00;98537.72;7394206;19;20018;-51
2022/03/12 06:41:45;;;;;;;0.30;0.30;;;;;;;10.08;100.00;98542.50;7395601;19;20017;-51
2022/03/12 06:44:14;;;;;;;4.85;0.30;;;;;;;10.10;100.00;98551.09;7392445;19;20010;-51
2022/03/12 06:46:39;;;;;;;0.40;0.20;;;;;;;10.12;100.00;98549.38;7393889;19;20086;-51
2022/03/12 06:49:06;;;;;;;0.10;0.10;;;;;;;10.14;100.00;98560.00;7394600;19;20018;-51
2022/03/12 06:51:32;;;;;;;0.20;0.20;;;;;;;10.15;100.00;98562.28;7396790;19;20097;-51
2022/03/12 06:53:58;;;;;;;0.82;0.40;;;;;;;10.20;100.00;98572.66;7392578;19;20356;-51
2022/03/12 06:56:24;;;;;;;0.10;0.10;;;;;;;10.22;100.00;98570.13;7393296;19;20011;-51
2022/03/12 06:58:49;;;;;;;0.20;0.20;;;;;;;10.23;100.00;98571.66;7391585;19;20015;-51
2022/03/12 07:01:15;;;;;;;0.13;0.13;;;;;;;10.20;100.00;98574.69;7396135;19;20030;-51
2022/03/12 07:03:40;;;;;;;3.15;1.27;;;;;;;10.19;100.00;98582.28;7391829;19;20026;-51
2022/03/12 07:06:07;;;;;;;1.45;1.17;;;;;;;10.22;100.00;98586.81;7392945;19;20014;-51
2022/03/12 07:08:34;;;;;;;1.35;0.52;;;;;;;10.21;100.00;98593.66;7393688;19;20022;-51
2022/03/12 07:11:01;;;;;;;0.50;0.45;;;;;;;10.24;100.00;98603.78;7394381;19;20018;-52
2022/03/12 07:13:28;;;;;;;0.43;0.43;;;;;;;10.25;100.00;98602.50;7389663;19;20019;-51
2022/03/12 07:15:53;;;;;;;0.10;0.10;;;;;;;10.26;100.00;98609.59;7391720;19;20021;-52
2022/03/12 07:18:19;;;;;;;0.22;0.22;;;;;;;10.29;100.00;98616.94;7392888;19;20407;-52
2022/03/12 07:20:44;;;;;;;0.15;0.15;;;;;;;10.30;100.00;98618.47;7391939;19;20010;-51
2022/03/12 07:23:10;;;;;;;0.20;0.20;;;;;;;10.33;100.00;98623.00;7391184;19;20010;-52
2022/03/12 07:25:35;;;;;;;0.20;0.20;;;;;;;10.35;100.00;98617.69;7392271;19;20018;-52
2022/03/12 07:28:01;;;;;;;0.10;0.10;;;;;;;10.40;100.00;98630.84;7393390;19;20021;-52
2022/03/12 07:30:27;;;;;;;0.35;0.35;;;;;;;10.46;100.00;98644.81;7392952;19;20368;-52
2022/03/12 07:32:52;;;;;;;0.17;0.10;;;;;;;10.48;100.00;98643.00;7392471;19;20093;-51
2022/03/12 07:35:19;;;;;;;0.20;0.20;;;;;;;10.46;100.00;98645.53;7392218;19;20014;-52
2022/03/12 07:37:46;;;;;;;0.40;0.40;;;;;;;10.54;100.00;98651.38;7388188;19;20503;-52
2022/03/12 07:40:13;;;;;;;0.35;0.15;;;;;;;10.55;100.00;98648.09;7399054;19;20017;-52
2022/03/12 07:42:39;;;;;;;0.10;0.10;;;;;;;10.55;100.00;98650.88;7399285;19;20014;-51
2022/03/12 07:45:07;;;;;;;0.10;0.10;;;;;;;10.54;100.00;98663.28;7396226;19;20018;-52
2022/03/12 07:47:34;;;;;;;6.03;0.98;;;;;;;10.58;100.00;98658.22;7397388;19;20039;-52
2022/03/12 07:50:01;;;;;;;0.10;0.10;;;;;;;10.57;100.00;98662.25;7399263;19;20018;-52
2022/03/12 07:52:26;;;;;;;0.80;0.60;;;;;;;10.42;100.00;98660.97;7400384;19;20038;-52
2022/03/12 07:54:52;;;;;;;1.35;0.35;;;;;;;10.25;100.00;98668.50;7399275;19;20019;-52
2022/03/12 07:57:18;;;;;;;0.30;0.30;;;;;;;10.23;100.00;98671.81;7398168;19;20003;-52
2022/03/12 07:59:44;;;;;;;0.20;0.17;;;;;;;10.35;100.00;98678.91;7399620;19;20071;-51
2022/03/12 08:02:10;;;;;;;0.32;0.32;;;;;;;10.50;100.00;98690.59;7401236;19;20035;-52
2022/03/12 08:04:36;;;;;;;0.40;0.30;;;;;;;10.54;100.00;98691.13;7400928;19;20015;-52
2022/03/12 08:07:03;;;;;;;0.45;0.45;;;;;;;10.60;100.00;98689.09;7400518;19;20015;-52
2022/03/12 08:09:32;;;;;;;0.20;0.20;;;;;;;10.66;100.00;98698.22;7400083;19;20454;-52
2022/03/12 08:11:59;;;;;;;0.85;0.30;;;;;;;10.64;100.00;98709.09;7398784;19;20361;-51
2022/03/12 08:14:26;;;;;;;0.98;0.50;;;;;;;10.65;100.00;98707.06;7400306;19;20019;-52
2022/03/12 08:16:52;;;;;;;0.10;0.10;;;;;;;10.71;100.00;98716.19;7397958;19;20017;-52
2022/03/12 08:19:21;;;;;;;0.20;0.20;;;;;;;10.59;100.00;98709.84;7399734;19;20022;-51
2022/03/12 08:21:49;;;;;;;0.10;0.10;;;;;;;10.49;100.00;98714.13;7401619;19;20020;-52
2022/03/12 08:24:15;;;;;;;4.03;0.28;;;;;;;10.56;100.00;98729.56;7400342;19;20347;-51
2022/03/12 08:26:42;;;;;;;0.32;0.32;;;;;;;10.57;100.00;98717.94;7401678;19;20450;-51
2022/03/12 08:29:12;;;;;;;11.50;0.40;;;;;;;10.50;100.00;98729.56;7400435;19;20023;-51
2022/03/12 08:31:39;;;;;;;2.00;0.25;;;;;;;10.53;100.00;98728.56;7401486;19;20010;-51
2022/03/12 08:34:05;;;;;;;0.82;0.32;;;;;;;10.48;100.00;98734.13;7399506;19;20019;-52
2022/03/12 08:36:31;;;;;;;0.17;0.17;;;;;;;10.40;100.00;98735.84;7399710;19;20366;-52
2022/03/12 08:38:57;;;;;;;0.10;0.10;;;;;;;10.38;100.00;98738.38;7402019;19;20018;-52
2022/03/12 08:41:23;;;;;;;4.20;0.40;;;;;;;10.34;100.00;98735.06;7400497;19;20025;-52
2022/03/12 08:43:49;;;;;;;3.13;0.82;;;;;;;10.30;100.00;98732.53;7397591;19;20021;-52
2022/03/12 08:46:15;;;;;;;0.20;0.20;;;;;;;10.27;100.00;98716.84;7397862;19;20473;-52
2022/03/12 08:48:41;;;;;;;0.20;0.20;;;;;;;10.29;100.00;98731.00;7399526;19;20006;-52
2022/03/12 08:51:07;;;;;;;0.40;0.40;;;;;;;10.38;100.00;98730.78;7393986;19;20045;-52
2022/03/12 08:53:33;;;;;;;4.85;0.50;;;;;;;10.43;100.00;98734.84;7394249;19;20463;-52
2022/03/12 08:56:00;;;;;;;0.47;0.40;;;;;;;10.53;100.00;98744.50;7391713;19;20007;-57
2022/03/12 08:58:27;;;;;;;1.10;0.20;;;;;;;10.56;100.00;98744.25;7395557;19;20025;-57
2022/03/12 09:00:53;;;;;;;5.18;0.43;;;;;;;10.61;100.00;98751.84;7396674;19;20466;-57
2022/03/12 09:03:21;;;;;;;0.75;0.20;;;;;;;10.70;100.00;98750.84;7394806;19;20011;-57
2022/03/12 09:05:48;;;;;;;8.68;0.35;;;;;;;10.68;100.00;98747.06;7394682;19;20022;-57
2022/03/12 09:08:15;;;;;;;0.30;0.25;;;;;;;10.69;100.00;98757.72;7394460;19;20038;-57
2022/03/12 09:10:41;;;;;;;0.90;0.20;;;;;;;10.78;100.00;98753.94;7394762;19;20022;-57
2022/03/12 09:13:07;;;;;;;0.10;0.10;;;;;;;10.83;100.00;98761.53;7391790;19;20134;-57
2022/03/12 09:15:34;;;;;;;7.32;0.65;;;;;;;10.83;100.00;98755.97;7396610;19;20018;-57
2022/03/12 09:18:00;;;;;;;0.10;0.10;;;;;;;10.83;100.00;98756.72;7397314;19;20066;-57
2022/03/12 09:20:26;;;;;;;0.13;0.13;;;;;;;10.89;100.00;98753.94;7397748;19;20047;-57
2022/03/12 09:22:52;;;;;;;0.10;0.10;;;;;;;10.98;100.00;98754.44;7396383;19;20078;-57
2022/03/12 09:25:19;;;;;;;0.10;0.10;;;;;;;11.11;100.00;98759.56;7395267;19;20014;-57
2022/03/12 09:27:45;;;;;;;0.20;0.20;;;;;;;11.16;100.00;98761.56;7394909;19;20022;-57
2022/03/12 09:30:13;;;;;;;0.10;0.10;;;;;;;11.19;100.00;98754.97;7395916;19;20351;-58
2022/03/12 09:32:39;;;;;;;0.30;0.30;;;;;;;11.19;100.00;98752.19;7392560;19;20021;-57
2022/03/12 09:35:05;;;;;;;0.73;0.10;;;;;;;11.19;100.00;98749.41;7393264;19;20022;-58
2022/03/12 09:37:32;;;;;;;1.33;0.40;;;;;;;11.20;100.00;98753.69;7393398;19;20018;-57
2022/03/12 09:40:00;;;;;;;0.32;0.32;;;;;;;11.35;100.00;98745.84;7396057;19;20066;-57
2022/03/12 09:42:30;;;;;;;0.10;0.10;;;;;;;11.52;100.00;98760.53;7394906;19;20007;-57
2022/03/12 09:44:59;;;;;;;0.10;0.10;;;;;;;11.61;100.00;98756.75;7396423;19;20010;-57
2022/03/12 09:47:25;;;;;;;0.25;0.25;;;;;;;11.59;100.00;98768.38;7395542;19;20019;-57
2022/03/12 09:49:52;;;;;;;10.23;0.30;;;;;;;11.71;100.00;98761.56;7390645;19;20067;-57
2022/03/12 09:52:17;;;;;;;0.50;0.50;;;;;;;11.74;100.00;98768.91;7394611;19;20023;-58
2022/03/12 09:54:43;;;;;;;0.17;0.17;;;;;;;11.93;100.00;98767.06;7392506;19;20017;-58
2022/03/12 09:57:09;;;;;;;1.00;0.32;;;;;;;12.21;100.00;98763.47;7393952;19;20014;-57
2022/03/12 09:59:35;;;;;;;0.15;0.15;;;;;;;12.46;100.00;98773.50;7392798;19;20418;-58
2022/03/12 10:02:01;;;;;;;0.20;0.20;;;;;;;12.51;100.00;98775.50;7397884;19;20107;-58
2022/03/12 10:04:28;;;;;;;0.10;0.10;;;;;;;12.72;100.00;98779.47;7394557;19;20466;-62
2022/03/12 10:06:55;;;;;;;4.32;0.17;;;;;;;12.84;100.00;98787.25;7392580;19;20022;-62
2022/03/12 10:09:20;;;;;;;0.55;0.40;;;;;;;12.86;100.00;98793.09;7393849;19;20103;-58
2022/03/12 10:11:49;;;;;;;0.50;0.30;;;;;;;12.98;100.00;98793.78;7397878;19;20357;-58
2022/03/12 10:14:15;;;;;;;0.43;0.17;;;;;;;12.91;100.00;98797.91;7393279;19;20074;-58
2022/03/12 10:16:40;;;;;;;0.47;0.47;;;;;;;12.80;100.00;98797.97;7394075;19;20010;-58
2022/03/12 10:19:06;;;;;;;0.60;0.47;;;;;;;12.79;100.00;98806.88;7396029;19;20022;-57
2022/03/12 10:21:32;;;;;;;0.22;0.22;;;;;;;12.85;100.00;98802.00;7396842;19;20011;-57
2022/03/12 10:23:59;;;;;;;1.70;0.20;;;;;;;12.94;100.00;98804.50;7394536;19;20051;-57
2022/03/12 10:26:25;;;;;;;0.17;0.17;;;;;;;12.92;100.00;98798.66;7392466;19;20010;-58
2022/03/12 10:28:51;;;;;;;0.73;0.35;;;;;;;12.87;100.00;98802.25;7391942;19;20066;-58
2022/03/12 10:31:19;;;;;;;0.10;0.10;;;;;;;12.80;100.00;98809.13;7396580;19;20463;-57
2022/03/12 10:33:46;;;;;;;0.30;0.10;;;;;;;12.71;100.00;98814.28;7393055;19;20014;-57
2022/03/12 10:36:14;;;;;;;0.52;0.52;;;;;;;12.62;100.00;98815.34;7394373;19;20019;-58
2022/03/12 10:38:42;;;;;;;0.10;0.10;;;;;;;12.59;100.00;98821.16;7394287;19;20078;-58
2022/03/12 10:41:09;;;;;;;0.38;0.20;;;;;;;12.66;100.00;98823.44;7394798;19;20025;-58
2022/03/12 10:43:48;;;;;;;0.32;0.13;;;;;;;12.73;100.00;98831.28;7390908;19;20482;-58
2022/03/12 10:46:20;;;;;;;1.95;0.10;;;;;;;12.88;100.00;98826.13;7393567;19;20011;-58
2022/03/12 10:48:50;;;;;;;5.00;0.98;;;;;;;13.01;100.00;98826.31;7391103;19;20026;-58
2022/03/12 10:51:18;;;;;;;0.90;0.40;;;;;;;13.07;100.00;98832.66;7393557;19;20014;-58
2022/03/12 10:53:45;;;;;;;1.10;0.40;;;;;;;13.05;100.00;98840.78;7392701;19;20027;-58
2022/03/12 10:56:11;;;;;;;2.63;1.00;;;;;;;13.07;100.00;98843.06;7389470;19;20115;-54
2022/03/12 10:58:37;;;;;;;1.52;0.13;;;;;;;13.08;100.00;98856.50;7389993;19;20021;-54
2022/03/12 11:01:03;;;;;;;0.30;0.20;;;;;;;13.05;100.00;98857.56;7393758;19;20081;-54
2022/03/12 11:03:34;;;;;;;2.55;0.60;;;;;;;13.06;100.00;98855.53;7389021;19;20038;-54
2022/03/12 11:06:00;;;;;;;;;;;;;;;13.10;100.00;98870.75;7392686;19;20046;-54
2022/03/12 11:08:30;;;;;;;1.65;0.55;;;;;;;13.10;100.00;98870.75;7391172;19;19922;-55
2022/03/12 11:11:11;;;;;;;0.43;0.20;;;;;;;13.22;100.00;98869.41;7393564;19;20015;-55
2022/03/12 11:13:47;;;;;;;1.85;0.57;;;;;;;13.33;100.00;98865.78;7391828;19;20013;-55
2022/03/12 11:16:35;;;;;;;5.35;0.20;;;;;;;13.44;100.00;98866.47;7401657;19;20015;-60
2022/03/12 11:19:10;;;;;;;5.68;0.60;;;;;;;13.45;100.00;98862.38;7403268;19;20078;-54
2022/03/12 11:21:52;;;;;;;1.88;0.20;;;;;;;13.40;100.00;98868.03;7404097;19;20078;-54
2022/03/12 11:24:23;;;;;;;0.40;0.28;;;;;;;13.37;100.00;98861.44;7399398;19;20021;-54